sensor_id;sensor_type;location;lat;lon;timestamp;pressure;altitude;pressure_sealevel;temperature
74321;BMP280;62738;45.772;4.804;2023-06-04T00:01:26;99582.50;;;20.04
74321;BMP280;62738;45.772;4.804;2023-06-04T00:03:56;99576.16;;;19.87
74321;BMP280;62738;45.772;4.804;2023-06-04T00:06:23;99578.50;;;20.09
74321;BMP280;62738;45.772;4.804;2023-06-04T00:08:49;99577.63;;;19.57
74321;BMP280;62738;45.772;4.804;2023-06-04T00:11:16;99577.91;;;19.79
74321;BMP280;62738;45.772;4.804;2023-06-04T00:13:43;99569.75;;;20.18
74321;BMP280;62738;45.772;4.804;2023-06-04T00:16:09;99572.63;;;20.36
74321;BMP280;62738;45.772;4.804;2023-06-04T00:18:36;99565.28;;;20.46
74321;BMP280;62738;45.772;4.804;2023-06-04T00:21:03;99561.69;;;20.62
74321;BMP280;62738;45.772;4.804;2023-06-04T00:23:30;99561.59;;;20.60
74321;BMP280;62738;45.772;4.804;2023-06-04T00:25:56;99561.00;;;20.45
74321;BMP280;62738;45.772;4.804;2023-06-04T00:28:23;99568.38;;;20.70
74321;BMP280;62738;45.772;4.804;2023-06-04T00:30:50;99564.50;;;20.62
74321;BMP280;62738;45.772;4.804;2023-06-04T00:33:16;99569.47;;;20.45
74321;BMP280;62738;45.772;4.804;2023-06-04T00:35:43;99574.81;;;20.22
74321;BMP280;62738;45.772;4.804;2023-06-04T00:38:10;99564.56;;;20.46
74321;BMP280;62738;45.772;4.804;2023-06-04T00:40:37;99570.84;;;20.11
74321;BMP280;62738;45.772;4.804;2023-06-04T00:43:03;99574.63;;;20.51
74321;BMP280;62738;45.772;4.804;2023-06-04T00:45:30;99577.44;;;20.51
74321;BMP280;62738;45.772;4.804;2023-06-04T00:47:57;99577.19;;;19.78
74321;BMP280;62738;45.772;4.804;2023-06-04T00:50:24;99586.16;;;19.59
74321;BMP280;62738;45.772;4.804;2023-06-04T00:52:51;99580.19;;;19.51
74321;BMP280;62738;45.772;4.804;2023-06-04T00:55:18;99581.59;;;19.99
74321;BMP280;62738;45.772;4.804;2023-06-04T00:57:45;99582.19;;;19.80
74321;BMP280;62738;45.772;4.804;2023-06-04T01:00:12;99600.44;;;19.79
74321;BMP280;62738;45.772;4.804;2023-06-04T01:02:39;99596.75;;;20.08
74321;BMP280;62738;45.772;4.804;2023-06-04T01:05:21;99591.16;;;20.25
74321;BMP280;62738;45.772;4.804;2023-06-04T01:07:57;99597.13;;;20.00
74321;BMP280;62738;45.772;4.804;2023-06-04T01:10:24;99587.91;;;20.15
74321;BMP280;62738;45.772;4.804;2023-06-04T01:12:50;99586.78;;;20.38
74321;BMP280;62738;45.772;4.804;2023-06-04T01:15:17;99589.69;;;20.58
74321;BMP280;62738;45.772;4.804;2023-06-04T01:17:46;99590.41;;;20.40
74321;BMP280;62738;45.772;4.804;2023-06-04T01:20:38;99598.81;;;20.23
74321;BMP280;62738;45.772;4.804;2023-06-04T01:23:19;99604.59;;;19.62
74321;BMP280;62738;45.772;4.804;2023-06-04T01:25:50;99599.75;;;19.18
74321;BMP280;62738;45.772;4.804;2023-06-04T01:28:19;99606.91;;;19.21
74321;BMP280;62738;45.772;4.804;2023-06-04T01:30:47;99599.00;;;19.33
74321;BMP280;62738;45.772;4.804;2023-06-04T01:33:16;99600.00;;;18.94
74321;BMP280;62738;45.772;4.804;2023-06-04T01:35:43;99606.31;;;18.66
74321;BMP280;62738;45.772;4.804;2023-06-04T01:38:10;99610.28;;;18.74
74321;BMP280;62738;45.772;4.804;2023-06-04T01:40:37;99604.00;;;18.89
74321;BMP280;62738;45.772;4.804;2023-06-04T01:43:03;99603.06;;;18.85
74321;BMP280;62738;45.772;4.804;2023-06-04T01:45:30;99589.59;;;18.68
74321;BMP280;62738;45.772;4.804;2023-06-04T01:47:57;99594.63;;;18.15
74321;BMP280;62738;45.772;4.804;2023-06-04T01:50:23;99592.94;;;18.64
74321;BMP280;62738;45.772;4.804;2023-06-04T01:52:50;99594.34;;;18.79
74321;BMP280;62738;45.772;4.804;2023-06-04T01:55:17;99594.69;;;19.00
74321;BMP280;62738;45.772;4.804;2023-06-04T01:57:46;99597.81;;;18.64
74321;BMP280;62738;45.772;4.804;2023-06-04T02:00:14;99600.22;;;18.42
74321;BMP280;62738;45.772;4.804;2023-06-04T02:02:43;99593.38;;;18.45
74321;BMP280;62738;45.772;4.804;2023-06-04T02:05:10;99590.97;;;18.53
74321;BMP280;62738;45.772;4.804;2023-06-04T02:07:38;99590.47;;;18.86
74321;BMP280;62738;45.772;4.804;2023-06-04T02:10:09;99586.34;;;19.02
74321;BMP280;62738;45.772;4.804;2023-06-04T02:12:37;99574.63;;;19.37
74321;BMP280;62738;45.772;4.804;2023-06-04T02:15:05;99572.63;;;19.40
74321;BMP280;62738;45.772;4.804;2023-06-04T02:17:32;99577.81;;;19.77
74321;BMP280;62738;45.772;4.804;2023-06-04T02:19:59;99565.78;;;20.08
74321;BMP280;62738;45.772;4.804;2023-06-04T02:22:25;99564.28;;;20.22
74321;BMP280;62738;45.772;4.804;2023-06-04T02:24:52;99566.44;;;20.24
74321;BMP280;62738;45.772;4.804;2023-06-04T02:27:19;99563.16;;;20.29
74321;BMP280;62738;45.772;4.804;2023-06-04T02:29:46;99563.63;;;20.39
74321;BMP280;62738;45.772;4.804;2023-06-04T02:32:13;99564.63;;;20.30
74321;BMP280;62738;45.772;4.804;2023-06-04T02:34:40;99570.78;;;20.09
74321;BMP280;62738;45.772;4.804;2023-06-04T02:37:06;99571.91;;;20.20
74321;BMP280;62738;45.772;4.804;2023-06-04T02:39:33;99569.53;;;19.96
74321;BMP280;62738;45.772;4.804;2023-06-04T02:42:00;99569.50;;;20.12
74321;BMP280;62738;45.772;4.804;2023-06-04T02:44:27;99581.69;;;19.85
74321;BMP280;62738;45.772;4.804;2023-06-04T02:46:56;99581.59;;;19.99
74321;BMP280;62738;45.772;4.804;2023-06-04T02:49:23;99577.72;;;20.57
74321;BMP280;62738;45.772;4.804;2023-06-04T02:51:50;99583.59;;;20.63
74321;BMP280;62738;45.772;4.804;2023-06-04T02:54:17;99567.06;;;20.56
74321;BMP280;62738;45.772;4.804;2023-06-04T02:56:43;99582.44;;;20.35
74321;BMP280;62738;45.772;4.804;2023-06-04T02:59:10;99573.50;;;20.40
74321;BMP280;62738;45.772;4.804;2023-06-04T03:01:40;99584.22;;;20.44
74321;BMP280;62738;45.772;4.804;2023-06-04T03:04:07;99583.09;;;20.18
74321;BMP280;62738;45.772;4.804;2023-06-04T03:06:37;99583.34;;;20.24
74321;BMP280;62738;45.772;4.804;2023-06-04T03:09:07;99583.09;;;20.51
74321;BMP280;62738;45.772;4.804;2023-06-04T03:11:33;99582.34;;;20.51
74321;BMP280;62738;45.772;4.804;2023-06-04T03:14:00;99588.00;;;20.51
74321;BMP280;62738;45.772;4.804;2023-06-04T03:16:27;99585.25;;;20.35
74321;BMP280;62738;45.772;4.804;2023-06-04T03:18:54;99583.53;;;20.28
74321;BMP280;62738;45.772;4.804;2023-06-04T03:21:20;99586.81;;;20.22
74321;BMP280;62738;45.772;4.804;2023-06-04T03:23:47;99587.53;;;20.56
74321;BMP280;62738;45.772;4.804;2023-06-04T03:26:14;99592.50;;;20.58
74321;BMP280;62738;45.772;4.804;2023-06-04T03:28:41;99591.81;;;20.57
74321;BMP280;62738;45.772;4.804;2023-06-04T03:31:07;99595.16;;;20.54
74321;BMP280;62738;45.772;4.804;2023-06-04T03:33:34;99591.97;;;20.61
74321;BMP280;62738;45.772;4.804;2023-06-04T03:36:01;99594.75;;;20.43
74321;BMP280;62738;45.772;4.804;2023-06-04T03:38:28;99585.09;;;20.49
74321;BMP280;62738;45.772;4.804;2023-06-04T03:40:55;99592.00;;;20.45
74321;BMP280;62738;45.772;4.804;2023-06-04T03:43:22;99590.88;;;20.35
74321;BMP280;62738;45.772;4.804;2023-06-04T03:45:49;99593.94;;;20.41
74321;BMP280;62738;45.772;4.804;2023-06-04T03:48:16;99594.78;;;20.28
74321;BMP280;62738;45.772;4.804;2023-06-04T03:50:42;99599.59;;;19.61
74321;BMP280;62738;45.772;4.804;2023-06-04T03:53:12;99598.34;;;19.79
74321;BMP280;62738;45.772;4.804;2023-06-04T03:55:39;99591.25;;;19.63
74321;BMP280;62738;45.772;4.804;2023-06-04T03:58:06;99598.56;;;19.85
74321;BMP280;62738;45.772;4.804;2023-06-04T04:00:36;99601.88;;;20.29
74321;BMP280;62738;45.772;4.804;2023-06-04T04:03:02;99600.06;;;20.02
74321;BMP280;62738;45.772;4.804;2023-06-04T04:05:30;99605.03;;;20.04
74321;BMP280;62738;45.772;4.804;2023-06-04T04:07:57;99593.78;;;19.57
74321;BMP280;62738;45.772;4.804;2023-06-04T04:10:24;99593.09;;;19.11
74321;BMP280;62738;45.772;4.804;2023-06-04T04:12:50;99587.06;;;19.48
74321;BMP280;62738;45.772;4.804;2023-06-04T04:15:20;99586.97;;;19.62
74321;BMP280;62738;45.772;4.804;2023-06-04T04:17:46;99594.25;;;19.67
74321;BMP280;62738;45.772;4.804;2023-06-04T04:20:13;99590.78;;;19.37
74321;BMP280;62738;45.772;4.804;2023-06-04T04:22:40;99594.69;;;19.00
74321;BMP280;62738;45.772;4.804;2023-06-04T04:25:09;99583.00;;;19.06
74321;BMP280;62738;45.772;4.804;2023-06-04T04:27:35;99586.69;;;19.40
74321;BMP280;62738;45.772;4.804;2023-06-04T04:30:06;99584.44;;;19.36
74321;BMP280;62738;45.772;4.804;2023-06-04T04:32:33;99584.66;;;19.11
74321;BMP280;62738;45.772;4.804;2023-06-04T04:34:59;99588.31;;;18.71
74321;BMP280;62738;45.772;4.804;2023-06-04T04:37:27;99592.44;;;18.54
74321;BMP280;62738;45.772;4.804;2023-06-04T04:39:53;99593.19;;;19.29
74321;BMP280;62738;45.772;4.804;2023-06-04T04:42:20;99593.56;;;19.21
74321;BMP280;62738;45.772;4.804;2023-06-04T04:44:47;99593.53;;;19.51
74321;BMP280;62738;45.772;4.804;2023-06-04T04:47:15;99610.34;;;19.80
74321;BMP280;62738;45.772;4.804;2023-06-04T04:49:42;99594.03;;;20.10
74321;BMP280;62738;45.772;4.804;2023-06-04T04:52:09;99594.25;;;20.16
74321;BMP280;62738;45.772;4.804;2023-06-04T04:54:36;99600.91;;;20.22
74321;BMP280;62738;45.772;4.804;2023-06-04T04:57:03;99603.91;;;20.26
74321;BMP280;62738;45.772;4.804;2023-06-04T04:59:39;99606.31;;;20.01
74321;BMP280;62738;45.772;4.804;2023-06-04T05:02:06;99603.63;;;20.20
74321;BMP280;62738;45.772;4.804;2023-06-04T05:04:33;99609.81;;;20.50
74321;BMP280;62738;45.772;4.804;2023-06-04T05:06:59;99600.66;;;20.67
74321;BMP280;62738;45.772;4.804;2023-06-04T05:09:26;99603.91;;;20.77
74321;BMP280;62738;45.772;4.804;2023-06-04T05:11:53;99600.03;;;20.86
74321;BMP280;62738;45.772;4.804;2023-06-04T05:14:19;99604.31;;;20.36
74321;BMP280;62738;45.772;4.804;2023-06-04T05:16:46;99604.06;;;20.30
74321;BMP280;62738;45.772;4.804;2023-06-04T05:19:18;99609.16;;;20.34
74321;BMP280;62738;45.772;4.804;2023-06-04T05:21:44;99604.44;;;20.56
74321;BMP280;62738;45.772;4.804;2023-06-04T05:24:11;99601.47;;;20.19
74321;BMP280;62738;45.772;4.804;2023-06-04T05:26:38;99602.22;;;19.88
74321;BMP280;62738;45.772;4.804;2023-06-04T05:29:06;99595.53;;;20.28
74321;BMP280;62738;45.772;4.804;2023-06-04T05:31:34;99598.03;;;20.71
74321;BMP280;62738;45.772;4.804;2023-06-04T05:34:01;99606.47;;;21.07
74321;BMP280;62738;45.772;4.804;2023-06-04T05:36:29;99602.75;;;21.20
74321;BMP280;62738;45.772;4.804;2023-06-04T05:38:56;99609.91;;;20.52
74321;BMP280;62738;45.772;4.804;2023-06-04T05:41:26;99607.53;;;20.29
74321;BMP280;62738;45.772;4.804;2023-06-04T05:43:54;99608.81;;;20.26
74321;BMP280;62738;45.772;4.804;2023-06-04T05:46:21;99616.13;;;20.66
74321;BMP280;62738;45.772;4.804;2023-06-04T05:48:48;99615.91;;;20.78
74321;BMP280;62738;45.772;4.804;2023-06-04T05:51:15;99623.09;;;20.99
74321;BMP280;62738;45.772;4.804;2023-06-04T05:53:42;99609.94;;;20.87
74321;BMP280;62738;45.772;4.804;2023-06-04T05:56:09;99611.97;;;20.85
74321;BMP280;62738;45.772;4.804;2023-06-04T05:58:35;99619.13;;;20.70
74321;BMP280;62738;45.772;4.804;2023-06-04T06:01:02;99620.75;;;20.93
74321;BMP280;62738;45.772;4.804;2023-06-04T06:03:29;99623.22;;;20.67
74321;BMP280;62738;45.772;4.804;2023-06-04T06:05:57;99626.16;;;20.69
74321;BMP280;62738;45.772;4.804;2023-06-04T06:08:26;99629.81;;;20.56
74321;BMP280;62738;45.772;4.804;2023-06-04T06:10:53;99630.94;;;21.37
74321;BMP280;62738;45.772;4.804;2023-06-04T06:13:20;99629.69;;;21.05
74321;BMP280;62738;45.772;4.804;2023-06-04T06:15:47;99625.88;;;21.16
74321;BMP280;62738;45.772;4.804;2023-06-04T06:18:17;99630.50;;;21.82
74321;BMP280;62738;45.772;4.804;2023-06-04T06:20:43;99637.25;;;21.93
74321;BMP280;62738;45.772;4.804;2023-06-04T06:23:10;99639.78;;;21.85
74321;BMP280;62738;45.772;4.804;2023-06-04T06:25:37;99641.50;;;21.74
74321;BMP280;62738;45.772;4.804;2023-06-04T06:28:06;99646.44;;;22.13
74321;BMP280;62738;45.772;4.804;2023-06-04T06:30:33;99643.50;;;22.31
74321;BMP280;62738;45.772;4.804;2023-06-04T06:33:01;99645.09;;;22.36
74321;BMP280;62738;45.772;4.804;2023-06-04T06:35:28;99643.66;;;21.95
74321;BMP280;62738;45.772;4.804;2023-06-04T06:37:54;99631.47;;;22.30
74321;BMP280;62738;45.772;4.804;2023-06-04T06:40:21;99645.31;;;22.03
74321;BMP280;62738;45.772;4.804;2023-06-04T06:42:50;99647.00;;;22.10
74321;BMP280;62738;45.772;4.804;2023-06-04T06:45:18;99642.31;;;22.38
74321;BMP280;62738;45.772;4.804;2023-06-04T06:47:45;99644.69;;;22.45
74321;BMP280;62738;45.772;4.804;2023-06-04T06:50:12;99644.69;;;22.24
74321;BMP280;62738;45.772;4.804;2023-06-04T06:52:38;99651.97;;;22.31
74321;BMP280;62738;45.772;4.804;2023-06-04T06:55:05;99645.81;;;22.36
74321;BMP280;62738;45.772;4.804;2023-06-04T06:57:32;99648.16;;;22.03
74321;BMP280;62738;45.772;4.804;2023-06-04T07:00:00;99654.41;;;21.42
74321;BMP280;62738;45.772;4.804;2023-06-04T07:02:27;99652.72;;;22.12
74321;BMP280;62738;45.772;4.804;2023-06-04T07:04:55;99641.31;;;22.71
74321;BMP280;62738;45.772;4.804;2023-06-04T07:07:22;99650.59;;;22.52
74321;BMP280;62738;45.772;4.804;2023-06-04T07:09:49;99648.00;;;22.18
74321;BMP280;62738;45.772;4.804;2023-06-04T07:12:16;99653.34;;;22.71
74321;BMP280;62738;45.772;4.804;2023-06-04T07:14:43;99650.16;;;22.61
74321;BMP280;62738;45.772;4.804;2023-06-04T07:17:09;99657.00;;;22.76
74321;BMP280;62738;45.772;4.804;2023-06-04T07:19:36;99656.38;;;22.77
74321;BMP280;62738;45.772;4.804;2023-06-04T07:22:03;99656.56;;;22.83
74321;BMP280;62738;45.772;4.804;2023-06-04T07:24:30;99656.97;;;22.52
74321;BMP280;62738;45.772;4.804;2023-06-04T07:26:57;99667.22;;;22.63
74321;BMP280;62738;45.772;4.804;2023-06-04T07:29:24;99664.94;;;22.38
74321;BMP280;62738;45.772;4.804;2023-06-04T07:31:50;99668.41;;;22.56
74321;BMP280;62738;45.772;4.804;2023-06-04T07:34:17;99665.34;;;22.50
74321;BMP280;62738;45.772;4.804;2023-06-04T07:36:44;99665.50;;;22.76
74321;BMP280;62738;45.772;4.804;2023-06-04T07:39:10;99665.97;;;22.90
74321;BMP280;62738;45.772;4.804;2023-06-04T07:41:37;99657.91;;;22.61
74321;BMP280;62738;45.772;4.804;2023-06-04T07:44:04;99669.69;;;22.53
74321;BMP280;62738;45.772;4.804;2023-06-04T07:46:30;99670.34;;;22.10
74321;BMP280;62738;45.772;4.804;2023-06-04T07:48:57;99675.06;;;22.45
74321;BMP280;62738;45.772;4.804;2023-06-04T07:51:24;99672.88;;;22.63
74321;BMP280;62738;45.772;4.804;2023-06-04T07:53:51;99679.75;;;23.02
74321;BMP280;62738;45.772;4.804;2023-06-04T07:56:18;99675.50;;;23.01
74321;BMP280;62738;45.772;4.804;2023-06-04T07:58:45;99668.25;;;23.41
74321;BMP280;62738;45.772;4.804;2023-06-04T08:01:13;99667.09;;;23.26
74321;BMP280;62738;45.772;4.804;2023-06-04T08:03:39;99671.69;;;23.87
74321;BMP280;62738;45.772;4.804;2023-06-04T08:06:09;99666.50;;;23.79
74321;BMP280;62738;45.772;4.804;2023-06-04T08:08:36;99670.84;;;24.06
74321;BMP280;62738;45.772;4.804;2023-06-04T08:11:03;99667.69;;;24.49
74321;BMP280;62738;45.772;4.804;2023-06-04T08:13:29;99666.69;;;24.37
74321;BMP280;62738;45.772;4.804;2023-06-04T08:15:56;99669.78;;;25.08
74321;BMP280;62738;45.772;4.804;2023-06-04T08:18:23;99671.28;;;25.43
74321;BMP280;62738;45.772;4.804;2023-06-04T08:20:50;99669.66;;;25.68
74321;BMP280;62738;45.772;4.804;2023-06-04T08:23:17;99670.91;;;25.97
74321;BMP280;62738;45.772;4.804;2023-06-04T08:25:43;99676.78;;;26.47
74321;BMP280;62738;45.772;4.804;2023-06-04T08:28:10;99677.13;;;26.69
74321;BMP280;62738;45.772;4.804;2023-06-04T08:30:39;99670.47;;;26.98
74321;BMP280;62738;45.772;4.804;2023-06-04T08:33:06;99667.63;;;27.56
74321;BMP280;62738;45.772;4.804;2023-06-04T08:35:35;99675.97;;;28.04
74321;BMP280;62738;45.772;4.804;2023-06-04T08:38:02;99663.94;;;27.46
74321;BMP280;62738;45.772;4.804;2023-06-04T08:40:29;99675.94;;;27.98
74321;BMP280;62738;45.772;4.804;2023-06-04T08:42:56;99678.66;;;27.88
74321;BMP280;62738;45.772;4.804;2023-06-04T08:45:24;99667.94;;;27.86
74321;BMP280;62738;45.772;4.804;2023-06-04T08:47:53;99676.16;;;28.22
74321;BMP280;62738;45.772;4.804;2023-06-04T08:50:22;99675.50;;;27.58
74321;BMP280;62738;45.772;4.804;2023-06-04T08:52:53;99674.09;;;28.29
74321;BMP280;62738;45.772;4.804;2023-06-04T08:55:21;99676.00;;;28.06
74321;BMP280;62738;45.772;4.804;2023-06-04T08:57:51;99672.88;;;28.60
74321;BMP280;62738;45.772;4.804;2023-06-04T09:00:19;99678.63;;;27.84
74321;BMP280;62738;45.772;4.804;2023-06-04T09:02:47;99680.91;;;27.33
74321;BMP280;62738;45.772;4.804;2023-06-04T09:05:22;99673.38;;;27.60
74321;BMP280;62738;45.772;4.804;2023-06-04T09:07:52;99671.28;;;26.61
74321;BMP280;62738;45.772;4.804;2023-06-04T09:10:19;99669.69;;;24.73
74321;BMP280;62738;45.772;4.804;2023-06-04T09:12:49;99667.16;;;25.86
74321;BMP280;62738;45.772;4.804;2023-06-04T09:15:16;99669.25;;;26.23
74321;BMP280;62738;45.772;4.804;2023-06-04T09:17:43;99663.81;;;26.82
74321;BMP280;62738;45.772;4.804;2023-06-04T09:20:22;99659.72;;;27.51
74321;BMP280;62738;45.772;4.804;2023-06-04T09:22:49;99664.47;;;27.92
74321;BMP280;62738;45.772;4.804;2023-06-04T09:25:42;99668.66;;;27.25
74321;BMP280;62738;45.772;4.804;2023-06-04T09:28:08;99662.88;;;27.79
74321;BMP280;62738;45.772;4.804;2023-06-04T09:30:35;99650.56;;;28.32
74321;BMP280;62738;45.772;4.804;2023-06-04T09:33:09;99650.53;;;28.28
74321;BMP280;62738;45.772;4.804;2023-06-04T09:35:36;99652.00;;;28.37
74321;BMP280;62738;45.772;4.804;2023-06-04T09:38:04;99649.63;;;29.16
74321;BMP280;62738;45.772;4.804;2023-06-04T09:40:38;99651.38;;;28.47
74321;BMP280;62738;45.772;4.804;2023-06-04T09:43:04;99641.28;;;28.34
74321;BMP280;62738;45.772;4.804;2023-06-04T09:45:33;99644.28;;;28.52
74321;BMP280;62738;45.772;4.804;2023-06-04T09:48:02;99642.94;;;28.71
74321;BMP280;62738;45.772;4.804;2023-06-04T09:50:33;99635.81;;;28.70
74321;BMP280;62738;45.772;4.804;2023-06-04T09:53:00;99633.91;;;29.11
74321;BMP280;62738;45.772;4.804;2023-06-04T09:55:28;99639.91;;;28.41
74321;BMP280;62738;45.772;4.804;2023-06-04T09:57:56;99637.28;;;28.73
74321;BMP280;62738;45.772;4.804;2023-06-04T10:00:24;99642.41;;;28.97
74321;BMP280;62738;45.772;4.804;2023-06-04T10:03:01;99637.44;;;29.05
74321;BMP280;62738;45.772;4.804;2023-06-04T10:05:32;99636.75;;;29.09
74321;BMP280;62738;45.772;4.804;2023-06-04T10:08:03;99636.41;;;28.48
74321;BMP280;62738;45.772;4.804;2023-06-04T10:10:34;99640.81;;;27.79
74321;BMP280;62738;45.772;4.804;2023-06-04T10:13:05;99643.75;;;28.84
74321;BMP280;62738;45.772;4.804;2023-06-04T10:15:35;99624.56;;;29.04
74321;BMP280;62738;45.772;4.804;2023-06-04T10:18:02;99619.03;;;29.47
74321;BMP280;62738;45.772;4.804;2023-06-04T10:20:31;99629.75;;;29.50
74321;BMP280;62738;45.772;4.804;2023-06-04T10:22:58;99621.53;;;28.68
74321;BMP280;62738;45.772;4.804;2023-06-04T10:25:26;99619.72;;;29.59
74321;BMP280;62738;45.772;4.804;2023-06-04T10:27:52;99618.91;;;29.18
74321;BMP280;62738;45.772;4.804;2023-06-04T10:30:19;99616.19;;;28.16
74321;BMP280;62738;45.772;4.804;2023-06-04T10:32:46;99617.06;;;28.37
74321;BMP280;62738;45.772;4.804;2023-06-04T10:35:13;99620.16;;;28.77
74321;BMP280;62738;45.772;4.804;2023-06-04T10:37:41;99613.03;;;28.76
74321;BMP280;62738;45.772;4.804;2023-06-04T10:40:08;99611.63;;;28.79
74321;BMP280;62738;45.772;4.804;2023-06-04T10:42:40;99608.00;;;28.73
74321;BMP280;62738;45.772;4.804;2023-06-04T10:45:08;99602.44;;;29.07
74321;BMP280;62738;45.772;4.804;2023-06-04T10:47:36;99605.16;;;28.71
74321;BMP280;62738;45.772;4.804;2023-06-04T10:50:09;99601.53;;;28.66
74321;BMP280;62738;45.772;4.804;2023-06-04T10:52:38;99602.53;;;28.01
74321;BMP280;62738;45.772;4.804;2023-06-04T10:55:07;99590.88;;;27.76
74321;BMP280;62738;45.772;4.804;2023-06-04T10:57:34;99590.72;;;28.46
74321;BMP280;62738;45.772;4.804;2023-06-04T11:00:02;99588.66;;;28.53
74321;BMP280;62738;45.772;4.804;2023-06-04T11:02:32;99595.84;;;28.64
74321;BMP280;62738;45.772;4.804;2023-06-04T11:05:00;99589.22;;;28.33
74321;BMP280;62738;45.772;4.804;2023-06-04T11:07:43;99594.88;;;28.25
74321;BMP280;62738;45.772;4.804;2023-06-04T11:10:12;99583.63;;;28.53
74321;BMP280;62738;45.772;4.804;2023-06-04T11:12:46;99580.69;;;28.37
74321;BMP280;62738;45.772;4.804;2023-06-04T11:15:14;99589.13;;;28.21
74321;BMP280;62738;45.772;4.804;2023-06-04T11:17:55;99583.25;;;27.99
74321;BMP280;62738;45.772;4.804;2023-06-04T11:20:25;99570.16;;;28.64
74321;BMP280;62738;45.772;4.804;2023-06-04T11:22:55;99568.97;;;27.97
74321;BMP280;62738;45.772;4.804;2023-06-04T11:25:26;99568.72;;;28.69
74321;BMP280;62738;45.772;4.804;2023-06-04T11:27:53;99577.44;;;29.03
74321;BMP280;62738;45.772;4.804;2023-06-04T11:30:20;99573.19;;;29.08
74321;BMP280;62738;45.772;4.804;2023-06-04T11:32:48;99562.50;;;29.19
74321;BMP280;62738;45.772;4.804;2023-06-04T11:35:15;99571.72;;;28.99
74321;BMP280;62738;45.772;4.804;2023-06-04T11:37:41;99568.19;;;29.11
74321;BMP280;62738;45.772;4.804;2023-06-04T11:40:18;99569.00;;;29.62
74321;BMP280;62738;45.772;4.804;2023-06-04T11:42:46;99573.97;;;30.24
74321;BMP280;62738;45.772;4.804;2023-06-04T11:45:15;99568.13;;;30.72
74321;BMP280;62738;45.772;4.804;2023-06-04T11:47:46;99560.41;;;31.62
74321;BMP280;62738;45.772;4.804;2023-06-04T11:50:14;99563.97;;;30.33
74321;BMP280;62738;45.772;4.804;2023-06-04T11:52:41;99557.50;;;30.28
74321;BMP280;62738;45.772;4.804;2023-06-04T11:55:12;99552.56;;;29.93
74321;BMP280;62738;45.772;4.804;2023-06-04T11:57:39;99548.13;;;30.48
74321;BMP280;62738;45.772;4.804;2023-06-04T12:00:09;99549.69;;;30.07
74321;BMP280;62738;45.772;4.804;2023-06-04T12:02:50;99546.84;;;30.07
74321;BMP280;62738;45.772;4.804;2023-06-04T12:05:29;99530.41;;;29.93
74321;BMP280;62738;45.772;4.804;2023-06-04T12:08:09;99543.16;;;30.42
74321;BMP280;62738;45.772;4.804;2023-06-04T12:10:40;99545.41;;;29.69
74321;BMP280;62738;45.772;4.804;2023-06-04T12:13:07;99532.53;;;29.60
74321;BMP280;62738;45.772;4.804;2023-06-04T12:15:34;99526.63;;;30.59
74321;BMP280;62738;45.772;4.804;2023-06-04T12:18:01;99528.06;;;30.60
74321;BMP280;62738;45.772;4.804;2023-06-04T12:20:38;99529.69;;;29.64
74321;BMP280;62738;45.772;4.804;2023-06-04T12:23:05;99523.88;;;30.17
74321;BMP280;62738;45.772;4.804;2023-06-04T12:25:33;99522.34;;;30.54
74321;BMP280;62738;45.772;4.804;2023-06-04T12:28:00;99528.34;;;31.33
74321;BMP280;62738;45.772;4.804;2023-06-04T12:30:39;99514.88;;;31.16
74321;BMP280;62738;45.772;4.804;2023-06-04T12:33:07;99513.44;;;31.15
74321;BMP280;62738;45.772;4.804;2023-06-04T12:35:34;99507.06;;;31.06
74321;BMP280;62738;45.772;4.804;2023-06-04T12:38:04;99508.50;;;31.05
74321;BMP280;62738;45.772;4.804;2023-06-04T12:40:32;99500.84;;;30.69
74321;BMP280;62738;45.772;4.804;2023-06-04T12:42:58;99500.38;;;29.74
74321;BMP280;62738;45.772;4.804;2023-06-04T12:45:25;99500.28;;;30.24
74321;BMP280;62738;45.772;4.804;2023-06-04T12:47:52;99500.75;;;30.79
74321;BMP280;62738;45.772;4.804;2023-06-04T12:50:19;99503.63;;;30.83
74321;BMP280;62738;45.772;4.804;2023-06-04T12:52:48;99498.66;;;31.69
74321;BMP280;62738;45.772;4.804;2023-06-04T12:55:15;99496.41;;;31.80
74321;BMP280;62738;45.772;4.804;2023-06-04T12:57:41;99491.88;;;31.24
74321;BMP280;62738;45.772;4.804;2023-06-04T13:00:11;99497.59;;;32.60
